Time;durP1;ratioP1;P1;durP2;ratioP2;P2;SDS_P1;SDS_P2;PMS_P1;PMS_P2;Temp;Humidity;BMP_temperature;BMP_pressure;BME280_temperature;BME280_humidity;BME280_pressure;Samples;Min_cycle;Max_cycle;Signal;HPM_P1;HPM_P2
2022/09/13 00:00:06;;;;;;;16.20;7.97;;;;;;;18.36;100.00;101132.16;7382806;19;20015;-78
2022/09/13 00:02:35;;;;;;;11.85;6.25;;;;;;;18.33;100.00;101132.19;7383323;19;20026;-79
2022/09/13 00:05:05;;;;;;;11.35;6.38;;;;;;;18.31;100.00;101129.56;7384296;19;20150;-79
2022/09/13 00:07:35;;;;;;;11.57;6.55;;;;;;;18.29;100.00;101131.38;7381863;19;20026;-77
2022/09/13 00:10:08;;;;;;;11.20;6.97;;;;;;;18.28;100.00;101126.94;7381693;19;20099;-77
2022/09/13 00:12:38;;;;;;;;;;;;;;;18.28;100.00;101129.63;7383649;19;20480;-76
2022/09/13 00:15:09;;;;;;;12.43;6.72;;;;;;;18.28;100.00;101129.63;7380510;19;20024;-77
2022/09/13 00:17:39;;;;;;;10.15;6.50;;;;;;;18.27;100.00;101133.16;7383995;19;20021;-78
2022/09/13 00:20:10;;;;;;;10.07;6.28;;;;;;;18.27;100.00;101127.84;7381112;19;20368;-78
2022/09/13 00:22:40;;;;;;;10.30;6.35;;;;;;;18.24;100.00;101127.91;7381797;19;20466;-79
2022/09/13 00:25:12;;;;;;;11.20;6.85;;;;;;;18.24;100.00;101130.56;7381299;19;20023;-77
2022/09/13 00:27:43;;;;;;;10.38;6.50;;;;;;;18.26;100.00;101132.28;7381906;19;20648;-78
2022/09/13 00:30:15;;;;;;;8.50;5.85;;;;;;;18.24;100.00;101127.91;7381981;19;20028;-78
2022/09/13 00:32:45;;;;;;;11.75;6.15;;;;;;;18.22;100.00;101130.56;7382172;19;20010;-78
2022/09/13 00:35:15;;;;;;;11.23;6.88;;;;;;;18.22;100.00;101133.22;7383656;19;20010;-78
2022/09/13 00:37:45;;;;;;;11.27;6.53;;;;;;;18.22;100.00;101135.00;7382821;19;20010;-78
2022/09/13 00:40:18;;;;;;;10.93;6.47;;;;;;;18.22;100.00;101124.38;7381052;19;20015;-78
2022/09/13 00:42:48;;;;;;;11.15;6.40;;;;;;;18.23;100.00;101128.78;7376966;19;20567;-78
2022/09/13 00:45:20;;;;;;;13.00;6.57;;;;;;;18.22;100.00;101129.69;7383961;19;20562;-76
2022/09/13 00:47:54;;;;;;;12.30;6.90;;;;;;;18.19;100.00;101125.31;7381121;19;20017;-76
2022/09/13 00:50:27;;;;;;;13.32;6.40;;;;;;;18.19;100.00;101135.03;7378272;19;20029;-76
2022/09/13 00:53:01;;;;;;;13.25;7.68;;;;;;;18.17;100.00;101132.41;7380732;19;20018;-78
2022/09/13 00:55:39;;;;;;;11.77;6.78;;;;;;;18.18;100.00;101133.28;7380426;19;20099;-77
2022/09/13 00:58:13;;;;;;;17.33;9.38;;;;;;;18.22;100.00;101135.00;7380151;19;20427;-77
2022/09/13 01:00:42;;;;;;;15.25;9.35;;;;;;;18.20;100.00;101137.69;7379476;19;20017;-77
2022/09/13 01:03:16;;;;;;;16.10;8.93;;;;;;;18.19;100.00;101140.34;7379941;19;20014;-76
2022/09/13 01:05:48;;;;;;;;;;;;;;;18.18;100.00;101138.59;7381682;19;20018;-77
2022/09/13 01:08:21;;;;;;;17.40;9.85;;;;;;;18.17;100.00;101144.81;7381586;19;19918;-77
2022/09/13 01:10:58;;;;;;;18.10;10.32;;;;;;;18.17;100.00;101139.50;7380344;19;20029;-77
2022/09/13 01:13:30;;;;;;;14.32;8.77;;;;;;;18.16;100.00;101135.09;7378468;19;20006;-77
2022/09/13 01:16:00;;;;;;;14.23;8.13;;;;;;;18.19;100.00;101130.59;7381144;19;20017;-77
2022/09/13 01:18:30;;;;;;;14.77;8.65;;;;;;;18.17;100.00;101135.06;7380018;19;20007;-77
2022/09/13 01:21:22;;;;;;;15.82;9.10;;;;;;;18.16;100.00;101135.09;7381337;19;20011;-77
2022/09/13 01:24:07;;;;;;;17.02;8.98;;;;;;;18.15;100.00;101135.97;7381816;19;20018;-77
2022/09/13 01:27:11;;;;;;;14.45;8.18;;;;;;;18.14;100.00;101128.91;7381227;19;20146;-76
2022/09/13 01:30:20;;;;;;;13.87;8.20;;;;;;;18.13;100.00;101124.50;7381025;19;20118;-77
2022/09/13 01:33:16;;;;;;;15.50;7.80;;;;;;;18.15;100.00;101122.72;7379586;19;20357;-77
2022/09/13 01:35:58;;;;;;;14.45;8.82;;;;;;;18.15;100.00;101122.72;7380861;19;20018;-79
2022/09/13 01:38:55;;;;;;;14.18;7.97;;;;;;;18.12;100.00;101112.13;7377164;19;21170;-77
2022/09/13 01:41:42;;;;;;;15.68;8.57;;;;;;;18.10;100.00;101108.63;7377243;19;20010;-77
2022/09/13 01:44:21;;;;;;;13.23;8.27;;;;;;;18.08;100.00;101115.72;7380719;19;20276;-77
2022/09/13 01:46:56;;;;;;;15.25;7.82;;;;;;;18.09;100.00;101117.47;7379164;19;20022;-78
2022/09/13 01:49:35;;;;;;;12.57;8.20;;;;;;;18.07;100.00;101108.66;7378232;19;20014;-77
2022/09/13 01:52:13;;;;;;;13.57;7.55;;;;;;;18.04;100.00;101114.88;7380946;19;20018;-77
2022/09/13 01:54:53;;;;;;;14.60;8.63;;;;;;;18.05;100.00;101107.81;7377335;19;20053;-77
2022/09/13 01:57:30;;;;;;;12.70;8.43;;;;;;;18.06;100.00;101105.13;7377755;19;20041;-77
2022/09/13 02:00:06;;;;;;;16.98;8.55;;;;;;;18.04;100.00;101098.97;7378556;19;20018;-77
2022/09/13 02:02:41;;;;;;;16.13;8.65;;;;;;;18.03;100.00;101098.97;7379621;19;20010;-78
2022/09/13 02:05:19;;;;;;;15.35;7.90;;;;;;;18.04;100.00;101098.97;7378481;19;20011;-77
2022/09/13 02:07:55;;;;;;;16.27;8.93;;;;;;;18.04;100.00;101103.41;7376376;19;20593;-77
2022/09/13 02:10:30;;;;;;;12.05;7.53;;;;;;;18.03;100.00;101098.97;7377821;19;20015;-77
2022/09/13 02:13:01;;;;;;;14.77;9.27;;;;;;;18.00;100.00;101097.25;7378535;19;20104;-77
2022/09/13 02:15:36;;;;;;;15.70;8.65;;;;;;;17.98;100.00;101097.25;7377784;19;20489;-77
2022/09/13 02:18:11;;;;;;;14.05;8.63;;;;;;;17.95;100.00;101099.97;7380073;19;20015;-77
2022/09/13 02:20:46;;;;;;;14.15;8.40;;;;;;;17.94;100.00;101100.84;7377917;19;20015;-77
2022/09/13 02:23:20;;;;;;;13.95;8.07;;;;;;;17.91;100.00;101103.56;7376964;19;20030;-77
2022/09/13 02:25:53;;;;;;;13.65;8.18;;;;;;;17.91;100.00;101098.25;7378354;19;20041;-73
2022/09/13 02:28:30;;;;;;;15.07;8.48;;;;;;;17.91;100.00;101106.19;7378752;19;20011;-73
2022/09/13 02:31:02;;;;;;;12.55;7.30;;;;;;;17.93;100.00;101112.38;7377753;19;20030;-73
2022/09/13 02:33:36;;;;;;;13.50;7.53;;;;;;;17.92;100.00;101110.63;7375759;19;20945;-73
2022/09/13 02:36:12;;;;;;;13.60;8.70;;;;;;;17.92;100.00;101107.09;7376196;19;20010;-73
2022/09/13 02:38:46;;;;;;;12.88;8.25;;;;;;;17.90;100.00;101109.75;7371129;19;20046;-73
2022/09/13 02:41:22;;;;;;;11.70;7.53;;;;;;;17.89;100.00;101107.13;7377567;19;20015;-73
2022/09/13 02:43:57;;;;;;;14.98;8.57;;;;;;;17.85;100.00;101111.59;7376967;19;20023;-73
2022/09/13 02:46:43;;;;;;;11.75;7.20;;;;;;;17.83;100.00;101105.41;7377035;19;20022;-77
2022/09/13 02:49:22;;;;;;;14.15;8.38;;;;;;;17.80;100.00;101104.56;7378517;19;20018;-77
2022/09/13 02:52:00;;;;;;;16.05;8.90;;;;;;;17.83;100.00;101094.81;7377332;19;20015;-77
2022/09/13 02:54:35;;;;;;;14.18;8.80;;;;;;;17.86;100.00;101096.53;7375337;19;20074;-77
2022/09/13 02:57:11;;;;;;;13.45;8.45;;;;;;;17.85;100.00;101100.97;7376596;19;20034;-77
2022/09/13 02:59:41;;;;;;;15.27;9.13;;;;;;;17.84;100.00;101106.28;7377117;19;20005;-77
2022/09/13 03:02:15;;;;;;;16.70;9.35;;;;;;;17.83;100.00;101109.84;7374304;19;20403;-78
2022/09/13 03:04:45;;;;;;;19.33;9.75;;;;;;;17.80;100.00;101109.88;7374562;19;20014;-77
2022/09/13 03:07:17;;;;;;;17.48;10.90;;;;;;;17.79;100.00;101111.66;7382303;19;20011;-77
2022/09/13 03:09:52;;;;;;;16.13;9.93;;;;;;;17.79;100.00;101109.00;7384683;19;20046;-77
2022/09/13 03:12:49;;;;;;;16.75;9.05;;;;;;;17.79;100.00;101108.13;7384385;19;20018;-77
2022/09/13 03:15:31;;;;;;;14.88;8.70;;;;;;;17.79;100.00;101108.13;7384750;19;20006;-77
2022/09/13 03:18:11;;;;;;;14.45;9.18;;;;;;;17.78;100.00;101109.91;7383500;19;20023;-77
2022/09/13 03:20:48;;;;;;;12.73;9.00;;;;;;;17.76;100.00;101109.03;7380096;19;20020;-76
2022/09/13 03:23:39;;;;;;;14.85;8.70;;;;;;;17.75;100.00;101106.41;7384005;19;20014;-77
2022/09/13 03:26:25;;;;;;;15.60;9.45;;;;;;;17.72;100.00;101102.03;7384324;19;20375;-77
2022/09/13 03:29:19;;;;;;;14.43;9.05;;;;;;;17.74;100.00;101112.59;7381728;19;20015;-76
2022/09/13 03:32:01;;;;;;;16.65;10.52;;;;;;;17.71;100.00;101110.88;7383579;19;20014;-76
2022/09/13 03:34:39;;;;;;;16.27;10.63;;;;;;;17.70;100.00;101118.84;7383529;19;20011;-76
2022/09/13 03:37:15;;;;;;;17.33;10.35;;;;;;;17.67;100.00;101109.19;7384564;19;20007;-76
2022/09/13 03:39:51;;;;;;;15.30;9.68;;;;;;;17.66;100.00;101110.06;7384394;19;20015;-76
2022/09/13 03:42:29;;;;;;;17.00;10.15;;;;;;;17.65;100.00;101113.59;7383417;19;20157;-77
2022/09/13 03:45:02;;;;;;;17.38;9.90;;;;;;;17.63;100.00;101126.00;7383618;19;20014;-76
2022/09/13 03:47:35;;;;;;;17.00;9.65;;;;;;;17.61;100.00;101126.00;7383510;19;20010;-77
2022/09/13 03:50:06;;;;;;;16.52;9.85;;;;;;;17.61;100.00;101123.34;7380943;19;20003;-76
2022/09/13 03:52:36;;;;;;;16.60;10.05;;;;;;;17.59;100.00;101119.84;7381021;19;20479;-76
2022/09/13 03:55:09;;;;;;;15.85;10.23;;;;;;;17.57;100.00;101123.41;7383648;19;20018;-76
2022/09/13 03:57:39;;;;;;;16.98;9.77;;;;;;;17.54;100.00;101120.78;7381429;19;20010;-76
2022/09/13 04:00:11;;;;;;;16.77;9.88;;;;;;;17.49;100.00;101117.31;7383141;19;20013;-72
2022/09/13 04:02:41;;;;;;;19.00;11.02;;;;;;;17.44;100.00;101122.66;7381350;19;20011;-72
2022/09/13 04:05:11;;;;;;;16.75;10.35;;;;;;;17.43;100.00;101125.31;7382806;19;20479;-72
2022/09/13 04:07:40;;;;;;;18.88;10.82;;;;;;;17.40;100.00;101120.06;7380587;19;20042;-72
2022/09/13 04:10:13;;;;;;;21.35;12.27;;;;;;;17.37;100.00;101120.09;7381915;19;20755;-72
2022/09/13 04:12:43;;;;;;;19.67;11.85;;;;;;;17.33;100.00;101124.53;7381269;19;20010;-77
2022/09/13 04:15:13;;;;;;;16.50;10.25;;;;;;;17.28;100.00;101129.88;7381725;19;20014;-77
2022/09/13 04:17:43;;;;;;;15.05;9.52;;;;;;;17.25;100.00;101127.25;7378427;19;20018;-76
2022/09/13 04:20:12;;;;;;;19.80;11.75;;;;;;;17.23;100.00;101128.16;7382727;19;20493;-77
2022/09/13 04:22:42;;;;;;;21.80;12.48;;;;;;;17.20;100.00;101122.91;7379139;19;20019;-76
2022/09/13 04:25:14;;;;;;;20.55;11.95;;;;;;;17.17;100.00;101136.19;7381438;19;20036;-77
2022/09/13 04:27:44;;;;;;;20.08;12.02;;;;;;;17.13;100.00;101135.31;7383514;19;20348;-77
2022/09/13 04:30:14;;;;;;;20.35;11.95;;;;;;;17.09;100.00;101136.25;7379974;19;20022;-77
2022/09/13 04:32:45;;;;;;;20.52;12.07;;;;;;;17.05;100.00;101138.94;7382521;19;20014;-76
2022/09/13 04:35:18;;;;;;;24.08;13.20;;;;;;;17.03;100.00;101136.31;7380392;19;20006;-77
2022/09/13 04:37:48;;;;;;;22.80;13.87;;;;;;;17.00;100.00;101145.16;7379985;19;20022;-77
2022/09/13 04:40:21;;;;;;;20.40;12.25;;;;;;;16.96;100.00;101140.78;7380127;19;20010;-77
2022/09/13 04:42:51;;;;;;;;;;;;;;;16.96;100.00;101146.06;7379859;19;20021;-77
2022/09/13 04:45:21;;;;;;;25.60;12.80;;;;;;;16.94;100.00;101139.03;7379792;19;19929;-77
2022/09/13 04:47:53;;;;;;;26.02;13.88;;;;;;;16.92;100.00;101146.09;7380389;19;20021;-77
2022/09/13 04:50:24;;;;;;;23.70;13.80;;;;;;;16.88;100.00;101147.91;7380823;19;20019;-77
2022/09/13 04:52:57;;;;;;;24.35;13.05;;;;;;;16.90;100.00;101150.53;7378357;19;20086;-77
2022/09/13 04:55:29;;;;;;;21.95;13.15;;;;;;;16.89;100.00;101156.72;7381908;19;20487;-77
2022/09/13 04:57:59;;;;;;;24.58;14.65;;;;;;;16.91;100.00;101149.66;7377989;19;20038;-76
2022/09/13 05:00:30;;;;;;;27.38;14.48;;;;;;;16.93;100.00;101161.09;7379144;19;20026;-77
2022/09/13 05:03:00;;;;;;;26.75;15.93;;;;;;;16.96;100.00;101155.78;7374982;19;20078;-77
2022/09/13 05:05:31;;;;;;;28.67;15.77;;;;;;;17.00;100.00;101160.16;7381323;19;20018;-76
2022/09/13 05:08:01;;;;;;;26.80;15.63;;;;;;;17.02;100.00;101152.22;7380365;19;20014;-76
2022/09/13 05:10:33;;;;;;;24.42;14.15;;;;;;;17.04;100.00;101148.66;7380912;19;20021;-77
2022/09/13 05:13:02;;;;;;;27.13;15.93;;;;;;;17.08;100.00;101155.69;7377864;19;20011;-72
2022/09/13 05:15:32;;;;;;;32.33;18.35;;;;;;;17.12;100.00;101156.53;7380261;19;20021;-73
2022/09/13 05:18:02;;;;;;;28.65;17.38;;;;;;;17.14;100.00;101160.94;7381284;19;20006;-72
2022/09/13 05:20:31;;;;;;;31.80;16.48;;;;;;;17.17;100.00;101160.03;7377010;19;20338;-72
2022/09/13 05:23:01;;;;;;;37.60;19.02;;;;;;;17.18;100.00;101165.31;7381680;19;20023;-72
2022/09/13 05:25:33;;;;;;;27.45;16.10;;;;;;;17.18;100.00;101161.78;7379041;19;20011;-72
2022/09/13 05:28:04;;;;;;;30.35;16.30;;;;;;;17.20;100.00;101166.19;7380764;19;20482;-72
2022/09/13 05:30:34;;;;;;;28.98;16.60;;;;;;;17.24;100.00;101165.28;7379342;19;20018;-76
2022/09/13 05:33:08;;;;;;;28.52;14.85;;;;;;;17.26;100.00;101158.19;7380514;19;20490;-78
2022/09/13 05:35:42;;;;;;;28.40;14.23;;;;;;;17.28;100.00;101161.69;7380872;19;20502;-77
2022/09/13 05:38:12;;;;;;;27.23;15.23;;;;;;;17.29;100.00;101159.94;7377004;19;20015;-77
2022/09/13 05:40:44;;;;;;;34.03;17.42;;;;;;;17.29;100.00;101160.81;7378469;19;20010;-77
2022/09/13 05:43:14;;;;;;;34.92;18.08;;;;;;;17.31;100.00;101160.78;7377983;19;20025;-76
2022/09/13 05:45:44;;;;;;;31.33;17.38;;;;;;;17.30;100.00;101166.97;7378628;19;20024;-76
2022/09/13 05:48:14;;;;;;;32.05;17.25;;;;;;;17.30;100.00;101170.50;7379043;19;20037;-77
2022/09/13 05:50:44;;;;;;;30.52;16.70;;;;;;;17.32;100.00;101171.38;7378632;19;20012;-77
2022/09/13 05:53:27;;;;;;;33.27;17.63;;;;;;;17.32;100.00;101174.03;7375975;19;20550;-77
2022/09/13 05:56:00;;;;;;;31.52;15.70;;;;;;;17.34;100.00;101163.41;7379314;19;20014;-78
2022/09/13 05:58:29;;;;;;;27.75;16.15;;;;;;;17.39;100.00;101166.03;7378707;19;20011;-76
2022/09/13 06:00:59;;;;;;;31.60;16.60;;;;;;;17.47;100.00;101173.00;7379208;19;20021;-76
2022/09/13 06:03:29;;;;;;;29.83;16.00;;;;;;;17.53;100.00;101174.72;7377313;19;20014;-78
2022/09/13 06:06:00;;;;;;;32.55;16.10;;;;;;;17.58;100.00;101167.59;7375698;19;20023;-78
2022/09/13 06:08:32;;;;;;;31.58;17.83;;;;;;;17.61;100.00;101171.09;7375734;19;20459;-76
2022/09/13 06:11:06;;;;;;;33.92;18.67;;;;;;;17.66;100.00;101170.22;7377660;19;20311;-75
2022/09/13 06:13:36;;;;;;;30.20;17.25;;;;;;;17.68;100.00;101182.53;7377094;19;20015;-76
2022/09/13 06:16:08;;;;;;;32.55;18.77;;;;;;;17.73;100.00;101183.34;7378710;19;20009;-76
2022/09/13 06:18:38;;;;;;;35.63;18.67;;;;;;;17.79;100.00;101185.06;7376856;19;20111;-76
2022/09/13 06:21:10;;;;;;;32.45;18.23;;;;;;;17.85;100.00;101177.03;7376353;19;20010;-76
2022/09/13 06:23:40;;;;;;;30.98;19.65;;;;;;;17.95;100.00;101184.00;7376467;19;20474;-76
2022/09/13 06:26:14;;;;;;;32.33;18.25;;;;;;;18.03;100.00;101181.25;7378837;19;20014;-76
2022/09/13 06:28:44;;;;;;;31.63;18.02;;;;;;;18.11;100.00;101179.38;7375302;19;20014;-76
2022/09/13 06:31:16;;;;;;;37.40;18.85;;;;;;;18.20;100.00;101184.59;7377243;19;20027;-76
2022/09/13 06:33:46;;;;;;;30.38;17.98;;;;;;;18.30;100.00;101171.16;7376051;19;20405;-75
2022/09/13 06:36:17;;;;;;;27.27;15.80;;;;;;;18.39;100.00;101175.47;7379017;19;20179;-75
2022/09/13 06:38:49;;;;;;;26.08;15.65;;;;;;;18.46;100.00;101178.94;7375527;19;20751;-76
2022/09/13 06:41:23;;;;;;;27.10;14.90;;;;;;;18.56;100.00;101173.47;7380320;19;20011;-76
2022/09/13 06:43:56;;;;;;;24.17;14.18;;;;;;;18.63;100.00;101181.38;7384846;19;20015;-76
2022/09/13 06:46:28;;;;;;;28.07;15.23;;;;;;;18.66;100.00;101173.38;7383824;19;20082;-76
2022/09/13 06:49:01;;;;;;;23.95;13.23;;;;;;;18.74;100.00;101177.66;7385884;19;20787;-76
2022/09/13 06:51:31;;;;;;;23.02;12.82;;;;;;;18.87;100.00;101181.88;7384618;19;20010;-78
2022/09/13 06:54:02;;;;;;;23.48;13.40;;;;;;;18.96;100.00;101183.50;7383441;19;20019;-76
2022/09/13 06:56:36;;;;;;;21.40;11.70;;;;;;;19.13;100.00;101175.25;7384401;19;20060;-77
2022/09/13 06:59:08;;;;;;;22.75;11.35;;;;;;;19.32;100.00;101176.72;7383349;19;20498;-76
2022/09/13 07:01:40;;;;;;;20.58;10.65;;;;;;;19.37;100.00;101179.28;7382554;19;20011;-76
2022/09/13 07:04:12;;;;;;;14.10;8.32;;;;;;;19.47;100.00;101179.09;7381907;19;20019;-77
2022/09/13 07:06:43;;;;;;;13.98;9.02;;;;;;;19.54;100.00;101172.78;7383349;19;20010;-76
2022/09/13 07:09:16;;;;;;;17.75;8.63;;;;;;;19.71;100.00;101175.16;7383747;19;20022;-76
2022/09/13 07:11:50;;;;;;;13.48;7.45;;;;;;;19.75;100.00;101178.63;7384781;19;20022;-76
2022/09/13 07:14:22;;;;;;;11.73;6.18;;;;;;;19.77;100.00;101177.66;7383714;19;20350;-76
2022/09/13 07:16:52;;;;;;;10.00;5.40;;;;;;;19.92;100.00;101174.69;7384538;19;20015;-76
2022/09/13 07:19:25;;;;;;;9.63;5.05;;;;;;;20.12;100.00;101176.97;7381842;19;20019;-77
2022/09/13 07:21:56;;;;;;;10.73;5.13;;;;;;;20.19;100.00;101175.03;7385291;19;20010;-77
2022/09/13 07:24:26;;;;;;;10.10;4.40;;;;;;;20.17;100.00;101179.53;7383321;19;20021;-76
2022/09/13 07:26:58;;;;;;;9.15;3.70;;;;;;;20.32;100.00;101179.19;7383762;19;20497;-75
2022/09/13 07:29:28;;;;;;;6.68;3.40;;;;;;;20.35;100.00;101187.13;7384443;19;20015;-75
2022/09/13 07:31:58;;;;;;;8.13;4.10;;;;;;;20.30;100.00;101188.13;7382582;19;20053;-74
2022/09/13 07:34:28;;;;;;;6.85;3.72;;;;;;;20.35;100.00;101189.78;7384188;19;20561;-71
2022/09/13 07:36:58;;;;;;;6.70;3.80;;;;;;;20.16;100.00;101188.41;7382551;19;20960;-71
2022/09/13 07:39:28;;;;;;;8.82;3.92;;;;;;;20.05;100.00;101190.44;7383060;19;20015;-71
2022/09/13 07:42:00;;;;;;;8.95;3.50;;;;;;;20.11;100.00;101184.97;7383199;19;20013;-71
2022/09/13 07:44:29;;;;;;;7.55;4.00;;;;;;;20.11;100.00;101184.97;7380919;19;20391;-71
2022/09/13 07:46:59;;;;;;;8.25;3.97;;;;;;;20.16;100.00;101188.41;7383471;19;20014;-74
2022/09/13 07:49:29;;;;;;;10.70;4.15;;;;;;;20.28;100.00;101196.16;7382260;19;20014;-71
2022/09/13 07:51:59;;;;;;;8.25;4.07;;;;;;;20.44;100.00;101200.28;7382958;19;20025;-74
2022/09/13 07:54:29;;;;;;;6.90;3.35;;;;;;;20.56;100.00;101196.47;7377565;19;20006;-71
2022/09/13 07:57:01;;;;;;;9.20;3.72;;;;;;;20.77;100.00;101200.44;7383576;19;20007;-72
2022/09/13 07:59:30;;;;;;;11.00;3.80;;;;;;;20.79;100.00;101199.50;7381903;19;20023;-73
2022/09/13 08:02:00;;;;;;;7.68;3.80;;;;;;;21.03;100.00;101200.69;7381011;19;20155;-75
2022/09/13 08:04:30;;;;;;;7.82;3.90;;;;;;;21.27;100.00;101203.69;7379071;19;20014;-75
2022/09/13 08:07:04;;;;;;;8.65;3.85;;;;;;;20.99;100.00;101199.00;7378790;19;20025;-75
2022/09/13 08:09:34;;;;;;;8.52;4.07;;;;;;;21.04;100.00;101202.44;7382910;19;20014;-76
2022/09/13 08:12:07;;;;;;;7.95;4.03;;;;;;;21.16;100.00;101199.47;7384654;19;20002;-75
2022/09/13 08:14:37;;;;;;;8.50;3.47;;;;;;;21.38;100.00;101209.63;7382966;19;20014;-75
2022/09/13 08:17:07;;;;;;;9.35;4.18;;;;;;;21.59;100.00;101206.41;7381889;19;20024;-75
2022/09/13 08:19:36;;;;;;;7.03;4.00;;;;;;;21.17;100.00;101206.56;7381762;19;20020;-75
2022/09/13 08:22:06;;;;;;;10.98;4.03;;;;;;;21.04;100.00;101205.09;7382190;19;20003;-75
2022/09/13 08:24:36;;;;;;;8.27;3.97;;;;;;;21.00;100.00;101211.41;7381497;19;20014;-75
2022/09/13 08:27:08;;;;;;;9.30;4.25;;;;;;;20.83;100.00;101214.47;7382023;19;20026;-75
2022/09/13 08:29:38;;;;;;;7.55;3.60;;;;;;;20.94;100.00;101208.91;7383336;19;20017;-75
2022/09/13 08:32:07;;;;;;;7.68;3.78;;;;;;;20.90;100.00;101215.22;7381081;19;20062;-75
2022/09/13 08:34:37;;;;;;;7.53;3.55;;;;;;;21.27;100.00;101214.38;7382373;19;20089;-75
2022/09/13 08:37:07;;;;;;;8.88;3.60;;;;;;;21.34;100.00;101215.97;7380988;19;20410;-75
2022/09/13 08:39:37;;;;;;;6.72;3.40;;;;;;;21.14;100.00;101221.75;7381952;19;20086;-75
2022/09/13 08:42:25;;;;;;;5.60;2.88;;;;;;;21.18;100.00;101229.66;7381472;19;20011;-76
2022/09/13 08:44:57;;;;;;;6.00;3.03;;;;;;;21.19;100.00;101226.06;7379256;19;20475;-75
2022/09/13 08:47:39;;;;;;;6.28;2.95;;;;;;;21.09;100.00;101221.00;7382115;19;20025;-72
2022/09/13 08:50:17;;;;;;;4.78;2.53;;;;;;;21.19;100.00;101226.06;7381488;19;20077;-72
2022/09/13 08:53:01;;;;;;;3.80;2.42;;;;;;;21.19;100.00;101228.72;7375789;19;20113;-74
2022/09/13 08:55:42;;;;;;;5.25;2.65;;;;;;;21.15;100.00;101221.72;7379682;19;20018;-72
2022/09/13 08:58:34;;;;;;;4.63;2.40;;;;;;;21.34;100.00;101231.97;7377690;19;20014;-75
2022/09/13 09:01:09;;;;;;;5.05;2.40;;;;;;;21.16;100.00;101230.59;7379373;19;20364;-72
2022/09/13 09:03:45;;;;;;;4.78;2.40;;;;;;;21.04;100.00;101236.22;7378514;19;20015;-73
2022/09/13 09:06:18;;;;;;;6.15;3.25;;;;;;;21.13;100.00;101228.00;7379176;19;20023;-75
2022/09/13 09:08:53;;;;;;;6.32;2.97;;;;;;;21.20;100.00;101227.81;7378808;19;20014;-77
2022/09/13 09:11:30;;;;;;;6.60;2.40;;;;;;;21.36;100.00;101230.13;7379143;19;20014;-77
2022/09/13 09:14:08;;;;;;;5.28;2.50;;;;;;;21.29;100.00;101224.09;7379723;19;20021;-76
2022/09/13 09:16:43;;;;;;;6.38;2.75;;;;;;;21.30;100.00;101219.63;7381620;19;20038;-76
2022/09/13 09:19:22;;;;;;;9.30;2.42;;;;;;;21.43;100.00;101213.94;7378537;19;20007;-76
2022/09/13 09:21:52;;;;;;;3.65;2.42;;;;;;;22.29;100.00;101217.81;7379301;19;20010;-75
2022/09/13 09:24:27;;;;;;;5.60;2.90;;;;;;;21.51;100.00;101224.41;7380769;19;20026;-76
2022/09/13 09:26:59;;;;;;;5.22;2.20;;;;;;;21.99;100.00;101229.34;7379741;19;20071;-76
2022/09/13 09:29:34;;;;;;;3.30;2.40;;;;;;;22.34;100.00;101218.56;7379343;19;20569;-75
2022/09/13 09:32:20;;;;;;;4.55;2.30;;;;;;;22.83;100.00;101214.44;7376353;19;20025;-77
2022/09/13 09:35:07;;;;;;;2.53;1.75;;;;;;;23.25;100.00;101214.81;7379126;19;20010;-75
2022/09/13 09:37:40;;;;;;;4.13;2.15;;;;;;;22.15;100.00;101218.22;7379640;19;20014;-75
2022/09/13 09:40:16;;;;;;;5.47;2.00;;;;;;;22.33;100.00;101215.94;7379385;19;20540;-72
2022/09/13 09:42:48;;;;;;;3.22;1.80;;;;;;;22.85;100.00;101217.06;7377870;19;20011;-71
2022/09/13 09:45:28;;;;;;;5.88;2.00;;;;;;;23.05;100.00;101211.91;7378345;19;20024;-71
2022/09/13 09:48:03;;;;;;;3.97;1.70;;;;;;;23.31;100.00;101203.03;7378752;19;20044;-74
2022/09/13 09:50:37;;;;;;;3.38;2.10;;;;;;;22.33;100.00;101218.59;7377234;19;20015;-73
2022/09/13 09:53:10;;;;;;;5.88;2.42;;;;;;;21.90;100.00;101222.44;7372642;19;20006;-73
2022/09/13 09:55:47;;;;;;;5.20;2.03;;;;;;;21.74;100.00;101232.69;7378573;19;20455;-74
2022/09/13 09:58:17;;;;;;;5.00;2.33;;;;;;;21.76;100.00;101220.19;7376411;19;20537;-73
2022/09/13 10:00:57;;;;;;;10.90;3.30;;;;;;;21.40;100.00;101229.16;7380579;19;20014;-73
2022/09/13 10:03:29;;;;;;;5.95;2.60;;;;;;;21.50;100.00;101226.22;7380690;19;20354;-72
2022/09/13 10:06:07;;;;;;;5.25;1.77;;;;;;;21.71;100.00;101215.88;7373826;19;20007;-72
2022/09/13 10:08:39;;;;;;;4.68;2.28;;;;;;;22.19;100.00;101214.53;7379082;19;20015;-73
2022/09/13 10:11:09;;;;;;;4.32;1.90;;;;;;;22.51;100.00;101213.59;7379513;19;20014;-72
2022/09/13 10:13:39;;;;;;;5.60;2.13;;;;;;;22.78;100.00;101211.88;7377776;19;20015;-72
2022/09/13 10:16:28;;;;;;;4.22;2.00;;;;;;;22.81;100.00;101202.91;7378765;19;20046;-73
2022/09/13 10:19:26;;;;;;;5.55;2.33;;;;;;;22.17;100.00;101212.81;7384218;19;20082;-72
2022/09/13 10:22:04;;;;;;;7.63;2.05;;;;;;;22.49;100.00;101206.53;7386335;19;20054;-72
2022/09/13 10:24:35;;;;;;;3.55;1.80;;;;;;;22.31;100.00;101201.75;7386467;19;20003;-74
2022/09/13 10:27:05;;;;;;;3.80;2.38;;;;;;;22.41;100.00;101193.41;7383738;19;20021;-73
2022/09/13 10:29:35;;;;;;;3.97;1.83;;;;;;;22.42;100.00;101192.50;7386633;19;20447;-77
2022/09/13 10:32:11;;;;;;;3.97;2.08;;;;;;;22.71;100.00;101185.38;7385377;19;20226;-77
2022/09/13 10:34:48;;;;;;;4.35;2.22;;;;;;;22.63;100.00;101187.41;7385353;19;20070;-76
2022/09/13 10:37:21;;;;;;;4.22;1.73;;;;;;;23.13;100.00;101185.78;7385586;19;20229;-77
2022/09/13 10:39:57;;;;;;;3.38;1.85;;;;;;;23.57;100.00;101187.00;7385868;19;20014;-76
2022/09/13 10:42:29;;;;;;;2.85;1.85;;;;;;;23.32;100.00;101192.28;7386701;19;20022;-76
2022/09/13 10:45:02;;;;;;;5.13;2.15;;;;;;;23.45;100.00;101196.28;7385695;19;20010;-78
2022/09/13 10:47:41;;;;;;;2.78;2.05;;;;;;;23.84;100.00;101192.31;7386624;19;20010;-74
2022/09/13 10:50:21;;;;;;;5.57;2.10;;;;;;;23.34;100.00;101193.09;7383076;19;20025;-72
2022/09/13 10:52:53;;;;;;;3.60;2.15;;;;;;;22.78;100.00;101192.28;7383229;19;20010;-78
2022/09/13 10:55:42;;;;;;;9.13;2.38;;;;;;;23.23;100.00;101187.25;7386211;19;20104;-77
2022/09/13 10:58:21;;;;;;;5.82;2.25;;;;;;;23.58;100.00;101188.75;7380669;19;20010;-77
2022/09/13 11:01:34;;;;;;;4.00;1.90;;;;;;;23.71;100.00;101192.75;7384411;19;20443;-77
2022/09/13 11:04:39;;;;;;;7.32;2.55;;;;;;;22.94;100.00;101193.53;7381485;19;20051;-76
2022/09/13 11:07:42;;;;;;;7.05;2.72;;;;;;;23.22;100.00;101193.50;7383977;19;20546;-72
2022/09/13 11:10:20;;;;;;;5.15;2.13;;;;;;;23.94;100.00;101188.31;7381750;19;20019;-73
2022/09/13 11:12:57;;;;;;;5.63;2.25;;;;;;;23.97;100.00;101185.53;7381822;19;20445;-73
2022/09/13 11:15:42;;;;;;;4.45;2.10;;;;;;;24.03;100.00;101183.50;7387038;19;20024;-73
2022/09/13 11:18:36;;;;;;;2.72;1.90;;;;;;;23.97;100.00;101174.81;7384456;19;20066;-74
2022/09/13 11:21:20;;;;;;;4.00;2.10;;;;;;;24.35;100.00;101185.00;7381619;19;20265;-74
2022/09/13 11:24:15;;;;;;;5.00;2.72;;;;;;;24.96;100.00;101182.59;7381076;19;20014;-74
2022/09/13 11:27:03;;;;;;;4.00;2.13;;;;;;;24.29;100.00;101185.25;7380093;19;20015;-73
2022/09/13 11:29:50;;;;;;;6.38;2.45;;;;;;;24.48;100.00;101185.41;7384263;19;20011;-72
2022/09/13 11:32:35;;;;;;;4.57;2.00;;;;;;;24.90;100.00;101180.16;7380559;19;20019;-73
2022/09/13 11:35:30;;;;;;;4.25;2.00;;;;;;;24.67;100.00;101188.25;7383064;19;20014;-77
2022/09/13 11:38:14;;;;;;;4.43;1.80;;;;;;;24.80;100.00;101197.56;7385105;19;20010;-76
2022/09/13 11:40:57;;;;;;;3.58;1.90;;;;;;;24.85;100.00;101192.88;7383127;19;20082;-77
2022/09/13 11:43:57;;;;;;;6.50;2.30;;;;;;;24.16;100.00;101189.28;7384914;19;20121;-77